ETD223 OTHH-OMAA
Flight info
| Callsign | ETD223 |
|---|---|
| Flight time | 0h 39m |
| Altitude | 21000 |
| Route | KUPRO N300 KAXOB Q415 UKILI |
| Aircraft | A320/M-SDE3FGHIRWY/LB1 |
Departure
| Time | 2026-05-05 00:55 |
|---|---|
| Airport | Hamad International Airport (OTHH) |
Arrival
| Time | 2026-05-05 01:34 |
|---|---|
| Airport | Zayed International Airport (OMAA) |
| Time | Latitude | Longitude | Altitude | Speed | Heading |
|---|---|---|---|---|---|
| 2026-05-05 00:32 | 25.26284 | 51.61194 | 20 ft | 0 kts | 68° |
| 2026-05-05 00:46 | 25.26282 | 51.61189 | 20 ft | 2 kts | 68° |
| 2026-05-05 00:46 | 25.26275 | 51.61171 | 23 ft | 2 kts | 68° |
| 2026-05-05 00:46 | 25.26269 | 51.61153 | 21 ft | 2 kts | 68° |
| 2026-05-05 00:46 | 25.26262 | 51.61136 | 21 ft | 2 kts | 87° |
| 2026-05-05 00:47 | 25.26261 | 51.61117 | 20 ft | 2 kts | 59° |
| 2026-05-05 00:47 | 25.26253 | 51.61102 | 20 ft | 2 kts | 97° |
| 2026-05-05 00:47 | 25.26258 | 51.61085 | 20 ft | 2 kts | 117° |
| 2026-05-05 00:47 | 25.26265 | 51.61069 | 21 ft | 2 kts | 120° |
| 2026-05-05 00:48 | 25.26268 | 51.61062 | 21 ft | 1 kts | 153° |
| 2026-05-05 00:48 | 25.26261 | 51.61066 | 20 ft | 0 kts | 153° |
| 2026-05-05 00:49 | 25.26255 | 51.61068 | 22 ft | 2 kts | 167° |
| 2026-05-05 00:50 | 25.26246 | 51.61058 | 20 ft | 2 kts | 231° |
| 2026-05-05 00:50 | 25.26231 | 51.61037 | 20 ft | 5 kts | 231° |
| 2026-05-05 00:50 | 25.26207 | 51.60999 | 20 ft | 7 kts | 243° |
| 2026-05-05 00:50 | 25.26183 | 51.60940 | 20 ft | 10 kts | 250° |
| 2026-05-05 00:51 | 25.26157 | 51.60861 | 22 ft | 12 kts | 250° |
| 2026-05-05 00:51 | 25.26125 | 51.60763 | 22 ft | 15 kts | 250° |
| 2026-05-05 00:51 | 25.26086 | 51.60646 | 20 ft | 17 kts | 250° |
| 2026-05-05 00:51 | 25.26031 | 51.60546 | 21 ft | 14 kts | 214° |
| 2026-05-05 00:52 | 25.25940 | 51.60564 | 21 ft | 14 kts | 155° |
| 2026-05-05 00:52 | 25.25845 | 51.60610 | 20 ft | 16 kts | 161° |
| 2026-05-05 00:52 | 25.25737 | 51.60657 | 20 ft | 18 kts | 158° |
| 2026-05-05 00:52 | 25.25621 | 51.60692 | 20 ft | 17 kts | 197° |
| 2026-05-05 00:53 | 25.25578 | 51.60602 | 20 ft | 14 kts | 273° |
| 2026-05-05 00:53 | 25.25596 | 51.60507 | 20 ft | 11 kts | 331° |
| 2026-05-05 00:53 | 25.25643 | 51.60493 | 21 ft | 1 kts | 340° |
| 2026-05-05 00:53 | 25.25646 | 51.60492 | 20 ft | 1 kts | 340° |
| 2026-05-05 00:54 | 25.25681 | 51.60477 | 20 ft | 25 kts | 339° |
| 2026-05-05 00:54 | 25.26079 | 51.60302 | 23 ft | 95 kts | 338° |
| 2026-05-05 00:54 | 25.26877 | 51.59953 | 19 ft | 149 kts | 338° |
| 2026-05-05 00:54 | 25.27903 | 51.59467 | 404 ft | 161 kts | 336° |
| 2026-05-05 00:55 | 25.28925 | 51.58958 | 1056 ft | 161 kts | 338° |
| 2026-05-05 00:55 | 25.29952 | 51.58464 | 1727 ft | 164 kts | 339° |
| 2026-05-05 00:55 | 25.31076 | 51.57955 | 2089 ft | 185 kts | 347° |
| 2026-05-05 00:55 | 25.32410 | 51.58054 | 2254 ft | 208 kts | 24° |
| 2026-05-05 00:56 | 25.33474 | 51.59249 | 2499 ft | 239 kts | 63° |
| 2026-05-05 00:56 | 25.33720 | 51.61173 | 2819 ft | 268 kts | 90° |
| 2026-05-05 00:56 | 25.33408 | 51.63244 | 3488 ft | 277 kts | 100° |
| 2026-05-05 00:56 | 25.32903 | 51.65297 | 4349 ft | 277 kts | 103° |
| 2026-05-05 00:57 | 25.32358 | 51.67354 | 5128 ft | 280 kts | 102° |
| 2026-05-05 00:57 | 25.31828 | 51.69444 | 5894 ft | 284 kts | 101° |
| 2026-05-05 00:57 | 25.31327 | 51.71561 | 6636 ft | 286 kts | 100° |
| 2026-05-05 00:57 | 25.30852 | 51.73715 | 7379 ft | 290 kts | 99° |
| 2026-05-05 00:58 | 25.30397 | 51.75897 | 8122 ft | 293 kts | 98° |
| 2026-05-05 00:58 | 25.29948 | 51.78110 | 8860 ft | 297 kts | 98° |
| 2026-05-05 00:58 | 25.29499 | 51.80351 | 9595 ft | 301 kts | 98° |
| 2026-05-05 00:58 | 25.29044 | 51.82626 | 10266 ft | 306 kts | 98° |
| 2026-05-05 00:59 | 25.28580 | 51.84932 | 10930 ft | 310 kts | 99° |
| 2026-05-05 00:59 | 25.28107 | 51.87277 | 11601 ft | 315 kts | 99° |
| 2026-05-05 00:59 | 25.27625 | 51.89651 | 12274 ft | 319 kts | 100° |
| 2026-05-05 00:59 | 25.27144 | 51.92028 | 12928 ft | 323 kts | 100° |
| 2026-05-05 01:00 | 25.26650 | 51.94475 | 13590 ft | 328 kts | 101° |
| 2026-05-05 01:00 | 25.26150 | 51.96951 | 14082 ft | 337 kts | 101° |
| 2026-05-05 01:00 | 25.25622 | 51.99564 | 14200 ft | 359 kts | 101° |
| 2026-05-05 01:00 | 25.25061 | 52.02323 | 14352 ft | 377 kts | 102° |
| 2026-05-05 01:01 | 25.24474 | 52.05187 | 14780 ft | 385 kts | 102° |
| 2026-05-05 01:01 | 25.23880 | 52.08083 | 15328 ft | 388 kts | 102° |
| 2026-05-05 01:01 | 25.23281 | 52.11008 | 15912 ft | 391 kts | 103° |
| 2026-05-05 01:01 | 25.22678 | 52.13949 | 16499 ft | 394 kts | 103° |
| 2026-05-05 01:02 | 25.22072 | 52.16914 | 17086 ft | 397 kts | 103° |
| 2026-05-05 01:02 | 25.21464 | 52.19900 | 17666 ft | 400 kts | 103° |
| 2026-05-05 01:02 | 25.20849 | 52.22910 | 18233 ft | 403 kts | 104° |
| 2026-05-05 01:02 | 25.20228 | 52.25946 | 18754 ft | 406 kts | 104° |
| 2026-05-05 01:03 | 25.19613 | 52.28965 | 19278 ft | 409 kts | 104° |
| 2026-05-05 01:03 | 25.18983 | 52.32045 | 19812 ft | 413 kts | 104° |
| 2026-05-05 01:03 | 25.18346 | 52.35146 | 20345 ft | 416 kts | 104° |
| 2026-05-05 01:03 | 25.17703 | 52.38266 | 20662 ft | 418 kts | 104° |
| 2026-05-05 01:04 | 25.17057 | 52.41394 | 20741 ft | 418 kts | 104° |
| 2026-05-05 01:04 | 25.15759 | 52.47655 | 20755 ft | 418 kts | 104° |
| 2026-05-05 01:04 | 25.15112 | 52.50779 | 20757 ft | 418 kts | 104° |
| 2026-05-05 01:05 | 25.14464 | 52.53903 | 20753 ft | 417 kts | 104° |
| 2026-05-05 01:05 | 25.13808 | 52.57023 | 20760 ft | 417 kts | 106° |
| 2026-05-05 01:05 | 25.12856 | 52.60034 | 20757 ft | 415 kts | 116° |
| 2026-05-05 01:05 | 25.11577 | 52.62886 | 20759 ft | 415 kts | 118° |
| 2026-05-05 01:06 | 25.10284 | 52.65734 | 20760 ft | 415 kts | 118° |
| 2026-05-05 01:06 | 25.08991 | 52.68586 | 20758 ft | 415 kts | 118° |
| 2026-05-05 01:06 | 25.07700 | 52.71431 | 20758 ft | 415 kts | 118° |
| 2026-05-05 01:06 | 25.06409 | 52.74279 | 20762 ft | 415 kts | 118° |
| 2026-05-05 01:07 | 25.05350 | 52.77197 | 20762 ft | 417 kts | 108° |
| 2026-05-05 01:07 | 25.04631 | 52.80302 | 20758 ft | 418 kts | 105° |
| 2026-05-05 01:07 | 25.03934 | 52.83410 | 20767 ft | 418 kts | 105° |
| 2026-05-05 01:07 | 25.03232 | 52.86518 | 20767 ft | 418 kts | 105° |
| 2026-05-05 01:08 | 25.02527 | 52.89629 | 20771 ft | 418 kts | 105° |
| 2026-05-05 01:08 | 25.01821 | 52.92738 | 20771 ft | 418 kts | 105° |
| 2026-05-05 01:08 | 25.01113 | 52.95847 | 20774 ft | 418 kts | 105° |
| 2026-05-05 01:08 | 25.00403 | 52.98963 | 20773 ft | 418 kts | 105° |
| 2026-05-05 01:09 | 24.99694 | 53.02072 | 20773 ft | 418 kts | 105° |
| 2026-05-05 01:09 | 24.98985 | 53.05186 | 20778 ft | 418 kts | 105° |
| 2026-05-05 01:09 | 24.98276 | 53.08302 | 20778 ft | 418 kts | 105° |
| 2026-05-05 01:09 | 24.97575 | 53.11370 | 20775 ft | 419 kts | 105° |
| 2026-05-05 01:10 | 24.96860 | 53.14479 | 20772 ft | 419 kts | 105° |
| 2026-05-05 01:10 | 24.96141 | 53.17596 | 20779 ft | 419 kts | 105° |
| 2026-05-05 01:10 | 24.95422 | 53.20708 | 20774 ft | 419 kts | 105° |
| 2026-05-05 01:10 | 24.94703 | 53.23817 | 20771 ft | 419 kts | 105° |
| 2026-05-05 01:11 | 24.93983 | 53.26929 | 20777 ft | 419 kts | 105° |
| 2026-05-05 01:11 | 24.93264 | 53.30037 | 20772 ft | 419 kts | 105° |
| 2026-05-05 01:11 | 24.92543 | 53.33148 | 20774 ft | 418 kts | 105° |
| 2026-05-05 01:11 | 24.91834 | 53.36212 | 20775 ft | 418 kts | 105° |
| 2026-05-05 01:12 | 24.91113 | 53.39315 | 20768 ft | 418 kts | 107° |
| 2026-05-05 01:12 | 24.90128 | 53.42314 | 20770 ft | 416 kts | 117° |
| 2026-05-05 01:12 | 24.88764 | 53.45113 | 20772 ft | 415 kts | 121° |
| 2026-05-05 01:12 | 24.87355 | 53.47887 | 20766 ft | 415 kts | 121° |
| 2026-05-05 01:13 | 24.85952 | 53.50655 | 20771 ft | 415 kts | 121° |
| 2026-05-05 01:13 | 24.84545 | 53.53433 | 20764 ft | 415 kts | 121° |
| 2026-05-05 01:13 | 24.83142 | 53.56205 | 20764 ft | 415 kts | 121° |
| 2026-05-05 01:13 | 24.81738 | 53.58974 | 20768 ft | 415 kts | 121° |
| 2026-05-05 01:14 | 24.80336 | 53.61746 | 20749 ft | 414 kts | 121° |
| 2026-05-05 01:14 | 24.78944 | 53.64495 | 20002 ft | 408 kts | 121° |
| 2026-05-05 01:14 | 24.77577 | 53.67193 | 19343 ft | 397 kts | 121° |
| 2026-05-05 01:14 | 24.76261 | 53.69791 | 18862 ft | 381 kts | 121° |
| 2026-05-05 01:15 | 24.74993 | 53.72294 | 18389 ft | 368 kts | 121° |
| 2026-05-05 01:15 | 24.73766 | 53.74716 | 17912 ft | 357 kts | 121° |
| 2026-05-05 01:15 | 24.72575 | 53.77064 | 17426 ft | 345 kts | 121° |
| 2026-05-05 01:15 | 24.71411 | 53.79352 | 16992 ft | 342 kts | 121° |
| 2026-05-05 01:16 | 24.70639 | 53.80865 | 16696 ft | 342 kts | 121° |
| 2026-05-05 01:16 | 24.69475 | 53.83142 | 16263 ft | 341 kts | 120° |
| 2026-05-05 01:16 | 24.68321 | 53.85407 | 15814 ft | 339 kts | 120° |
| 2026-05-05 01:16 | 24.67173 | 53.87663 | 15368 ft | 337 kts | 120° |
| 2026-05-05 01:17 | 24.66030 | 53.89906 | 14973 ft | 334 kts | 120° |
| 2026-05-05 01:17 | 24.64905 | 53.92112 | 14892 ft | 332 kts | 120° |
| 2026-05-05 01:17 | 24.63770 | 53.94334 | 14761 ft | 334 kts | 119° |
| 2026-05-05 01:17 | 24.62712 | 53.96604 | 14540 ft | 333 kts | 116° |
| 2026-05-05 01:18 | 24.61738 | 53.98907 | 14309 ft | 331 kts | 115° |
| 2026-05-05 01:18 | 24.60817 | 54.01193 | 14084 ft | 330 kts | 114° |
| 2026-05-05 01:18 | 24.59902 | 54.03490 | 13861 ft | 323 kts | 114° |
| 2026-05-05 01:18 | 24.59005 | 54.05718 | 13649 ft | 314 kts | 114° |
| 2026-05-05 01:19 | 24.58125 | 54.07876 | 13419 ft | 305 kts | 115° |
| 2026-05-05 01:19 | 24.57265 | 54.09963 | 13210 ft | 295 kts | 115° |
| 2026-05-05 01:19 | 24.56423 | 54.11985 | 13009 ft | 286 kts | 115° |
| 2026-05-05 01:19 | 24.55603 | 54.13943 | 12817 ft | 277 kts | 115° |
| 2026-05-05 01:20 | 24.54807 | 54.15843 | 12629 ft | 269 kts | 114° |
| 2026-05-05 01:20 | 24.54033 | 54.17691 | 12525 ft | 265 kts | 114° |
| 2026-05-05 01:20 | 24.53266 | 54.19537 | 12465 ft | 265 kts | 113° |
| 2026-05-05 01:20 | 24.52565 | 54.21413 | 12327 ft | 265 kts | 110° |
| 2026-05-05 01:21 | 24.51916 | 54.23302 | 12155 ft | 264 kts | 109° |
| 2026-05-05 01:21 | 24.51286 | 54.25188 | 11974 ft | 263 kts | 109° |
| 2026-05-05 01:21 | 24.50659 | 54.27064 | 11799 ft | 261 kts | 109° |
| 2026-05-05 01:21 | 24.50038 | 54.28914 | 11619 ft | 261 kts | 109° |
| 2026-05-05 01:22 | 24.49406 | 54.30777 | 11442 ft | 260 kts | 109° |
| 2026-05-05 01:22 | 24.48767 | 54.32638 | 11265 ft | 259 kts | 109° |
| 2026-05-05 01:22 | 24.48130 | 54.34483 | 11085 ft | 258 kts | 109° |
| 2026-05-05 01:22 | 24.47492 | 54.36328 | 10873 ft | 259 kts | 109° |
| 2026-05-05 01:23 | 24.46854 | 54.38168 | 10600 ft | 257 kts | 108° |
| 2026-05-05 01:23 | 24.46217 | 54.40003 | 10328 ft | 256 kts | 108° |
| 2026-05-05 01:23 | 24.45583 | 54.41826 | 10068 ft | 255 kts | 108° |
| 2026-05-05 01:23 | 24.44953 | 54.43640 | 9805 ft | 254 kts | 107° |
| 2026-05-05 01:24 | 24.44324 | 54.45451 | 9548 ft | 253 kts | 107° |
| 2026-05-05 01:24 | 24.43702 | 54.47246 | 9286 ft | 250 kts | 107° |
| 2026-05-05 01:24 | 24.43083 | 54.49035 | 9197 ft | 251 kts | 107° |
| 2026-05-05 01:24 | 24.42462 | 54.50831 | 9085 ft | 251 kts | 107° |
| 2026-05-05 01:25 | 24.41706 | 54.52565 | 8975 ft | 254 kts | 120° |
| 2026-05-05 01:25 | 24.40643 | 54.54127 | 8655 ft | 256 kts | 126° |
| 2026-05-05 01:25 | 24.39540 | 54.55661 | 8352 ft | 255 kts | 126° |
| 2026-05-05 01:25 | 24.38446 | 54.57190 | 8057 ft | 253 kts | 125° |
| 2026-05-05 01:26 | 24.37363 | 54.58707 | 7771 ft | 252 kts | 125° |
| 2026-05-05 01:26 | 24.36286 | 54.60218 | 7483 ft | 251 kts | 125° |
| 2026-05-05 01:26 | 24.35214 | 54.61721 | 7201 ft | 249 kts | 125° |
| 2026-05-05 01:26 | 24.34160 | 54.63196 | 6914 ft | 248 kts | 125° |
| 2026-05-05 01:27 | 24.33097 | 54.64680 | 6629 ft | 247 kts | 125° |
| 2026-05-05 01:27 | 24.32041 | 54.66158 | 6342 ft | 245 kts | 125° |
| 2026-05-05 01:27 | 24.30990 | 54.67633 | 6060 ft | 244 kts | 125° |
| 2026-05-05 01:27 | 24.29949 | 54.69090 | 5772 ft | 242 kts | 125° |
| 2026-05-05 01:28 | 24.28912 | 54.70538 | 5500 ft | 240 kts | 125° |
| 2026-05-05 01:28 | 24.27884 | 54.71975 | 5223 ft | 239 kts | 125° |
| 2026-05-05 01:28 | 24.26864 | 54.73400 | 4946 ft | 237 kts | 126° |
| 2026-05-05 01:28 | 24.26026 | 54.74943 | 4559 ft | 234 kts | 104° |
| 2026-05-05 01:29 | 24.25873 | 54.76628 | 4267 ft | 218 kts | 77° |
| 2026-05-05 01:29 | 24.26353 | 54.78128 | 4043 ft | 204 kts | 53° |
| 2026-05-05 01:29 | 24.27298 | 54.79235 | 3845 ft | 197 kts | 31° |
| 2026-05-05 01:29 | 24.28532 | 54.79832 | 3640 ft | 193 kts | 9° |
| 2026-05-05 01:30 | 24.29861 | 54.79889 | 3451 ft | 192 kts | 355° |
| 2026-05-05 01:30 | 24.31195 | 54.79793 | 3269 ft | 192 kts | 355° |
| 2026-05-05 01:30 | 24.32506 | 54.79576 | 3070 ft | 191 kts | 338° |
| 2026-05-05 01:30 | 24.33577 | 54.78777 | 2886 ft | 185 kts | 312° |
| 2026-05-05 01:31 | 24.34398 | 54.77657 | 2497 ft | 189 kts | 309° |
| 2026-05-05 01:31 | 24.35194 | 54.76533 | 2217 ft | 182 kts | 309° |
| 2026-05-05 01:31 | 24.35953 | 54.75463 | 1981 ft | 173 kts | 309° |
| 2026-05-05 01:31 | 24.36650 | 54.74483 | 1768 ft | 154 kts | 309° |
| 2026-05-05 01:32 | 24.37276 | 54.73604 | 1582 ft | 143 kts | 308° |
| 2026-05-05 01:32 | 24.37879 | 54.72756 | 1398 ft | 139 kts | 309° |
| 2026-05-05 01:32 | 24.38476 | 54.71916 | 1222 ft | 139 kts | 308° |
| 2026-05-05 01:32 | 24.39070 | 54.71081 | 1040 ft | 139 kts | 308° |
| 2026-05-05 01:33 | 24.39666 | 54.70244 | 878 ft | 139 kts | 307° |
| 2026-05-05 01:33 | 24.40264 | 54.69401 | 716 ft | 140 kts | 307° |
| 2026-05-05 01:33 | 24.40854 | 54.68572 | 550 ft | 140 kts | 307° |
| 2026-05-05 01:33 | 24.41454 | 54.67727 | 370 ft | 140 kts | 306° |
| 2026-05-05 01:34 | 24.42054 | 54.66883 | 187 ft | 140 kts | 306° |
| 2026-05-05 01:34 | 24.42637 | 54.66051 | 94 ft | 129 kts | 306° |
| 2026-05-05 01:34 | 24.43056 | 54.65459 | 86 ft | 43 kts | 310° |
| 2026-05-05 01:34 | 24.43143 | 54.65339 | 86 ft | 19 kts | 308° |
| 2026-05-05 01:35 | 24.43225 | 54.65221 | 86 ft | 20 kts | 307° |
| 2026-05-05 01:35 | 24.43316 | 54.65087 | 86 ft | 23 kts | 306° |
| 2026-05-05 01:35 | 24.43385 | 54.64929 | 80 ft | 18 kts | 281° |
| 2026-05-05 01:35 | 24.43408 | 54.64770 | 76 ft | 23 kts | 278° |
| 2026-05-05 01:36 | 24.43428 | 54.64622 | 76 ft | 21 kts | 278° |
| 2026-05-05 01:36 | 24.43447 | 54.64466 | 71 ft | 18 kts | 252° |
| 2026-05-05 01:36 | 24.43365 | 54.64358 | 74 ft | 18 kts | 224° |
| 2026-05-05 01:36 | 24.43266 | 54.64258 | 76 ft | 21 kts | 214° |
| 2026-05-05 01:37 | 24.43187 | 54.64192 | 76 ft | 0 kts | 218° |